createdAt,value
2017-11-15T00:00:02.969Z,45.87
2017-11-15T00:02:30.461Z,40.77
2017-11-15T00:04:57.945Z,36.30
2017-11-15T00:07:25.427Z,37.27
2017-11-15T00:09:53.336Z,39.70
2017-11-15T00:12:20.799Z,42.80
2017-11-15T00:14:48.262Z,40.47
2017-11-15T00:17:15.749Z,39.20
2017-11-15T00:19:43.226Z,37.47
2017-11-15T00:22:10.687Z,39.90
2017-11-15T00:24:39.106Z,34.33
2017-11-15T00:27:06.579Z,37.13
2017-11-15T00:29:34.044Z,36.63
2017-11-15T00:32:01.543Z,35.87
2017-11-15T00:34:29.021Z,34.90
2017-11-15T00:36:56.503Z,34.27
2017-11-15T00:39:23.967Z,33.97
2017-11-15T00:41:51.450Z,34.90
2017-11-15T00:44:18.909Z,34.70
2017-11-15T00:46:46.394Z,34.73
2017-11-15T00:49:13.894Z,35.95
2017-11-15T00:51:41.362Z,46.50
2017-11-15T00:54:08.863Z,40.50
2017-11-15T00:56:36.336Z,35.03
2017-11-15T00:59:03.798Z,37.57
2017-11-15T01:01:31.285Z,37.33
2017-11-15T01:03:58.747Z,36.93
2017-11-15T01:06:26.228Z,35.43
2017-11-15T01:08:53.694Z,32.80
2017-11-15T01:11:21.159Z,31.87
2017-11-15T01:13:48.647Z,32.87
2017-11-15T01:16:16.110Z,31.60
2017-11-15T01:18:43.578Z,31.37
2017-11-15T01:21:11.070Z,31.40
2017-11-15T01:23:38.540Z,32.17
2017-11-15T01:26:06.022Z,35.70
2017-11-15T01:28:33.488Z,33.50
2017-11-15T01:31:00.952Z,32.07
2017-11-15T01:33:28.438Z,30.87
2017-11-15T01:35:55.904Z,31.70
2017-11-15T01:38:23.386Z,31.80
2017-11-15T01:40:50.846Z,33.23
2017-11-15T01:43:18.305Z,31.30
2017-11-15T01:45:45.907Z,32.10
2017-11-15T01:48:13.367Z,33.43
2017-11-15T01:50:40.859Z,35.40
2017-11-15T01:53:08.326Z,31.73
2017-11-15T01:55:35.828Z,29.77
2017-11-15T01:58:03.314Z,35.10
2017-11-15T02:00:42.499Z,33.40
2017-11-15T02:03:09.978Z,31.33
2017-11-15T02:05:37.437Z,42.03
2017-11-15T02:08:04.939Z,36.60
2017-11-15T02:10:32.403Z,34.00
2017-11-15T02:12:59.863Z,36.93
2017-11-15T02:15:27.351Z,34.17
2017-11-15T02:17:54.813Z,39.80
2017-11-15T02:20:22.355Z,36.70
2017-11-15T02:22:49.852Z,29.03
2017-11-15T02:25:17.328Z,48.87
2017-11-15T02:27:44.810Z,50.40
2017-11-15T02:30:12.291Z,38.73
2017-11-15T02:32:39.766Z,37.47
2017-11-15T02:35:07.246Z,37.27
2017-11-15T02:37:34.822Z,39.87
2017-11-15T02:40:02.309Z,48.47
2017-11-15T02:42:29.792Z,42.97
2017-11-15T02:44:57.263Z,44.87
2017-11-15T02:47:24.748Z,41.27
2017-11-15T02:49:52.207Z,37.83
2017-11-15T02:52:19.666Z,41.10
2017-11-15T02:54:47.153Z,39.20
2017-11-15T02:57:14.628Z,41.03
2017-11-15T02:59:42.100Z,35.97
2017-11-15T03:02:09.592Z,33.03
2017-11-15T03:04:37.887Z,40.40
2017-11-15T03:07:05.344Z,31.07
2017-11-15T03:09:32.961Z,36.03
2017-11-15T03:12:00.423Z,36.27
2017-11-15T03:14:27.878Z,49.92
2017-11-15T03:16:55.376Z,37.22
2017-11-15T03:19:22.841Z,31.87
2017-11-15T03:21:50.307Z,33.97
2017-11-15T03:24:17.791Z,31.30
2017-11-15T03:26:45.248Z,36.90
2017-11-15T03:29:12.736Z,41.22
2017-11-15T03:31:40.199Z,38.53
2017-11-15T03:34:07.657Z,37.10
2017-11-15T03:36:35.139Z,34.30
2017-11-15T03:39:02.603Z,30.97
2017-11-15T03:41:30.095Z,30.90
2017-11-15T03:43:57.551Z,32.27
2017-11-15T03:46:25.045Z,34.03
2017-11-15T03:48:52.517Z,34.70
2017-11-15T03:51:19.983Z,36.77
2017-11-15T03:53:47.466Z,37.80
2017-11-15T03:56:14.926Z,36.00
2017-11-15T03:58:42.406Z,38.90
2017-11-15T04:01:09.857Z,37.97
2017-11-15T04:03:37.332Z,29.07
2017-11-15T04:06:04.818Z,30.83
2017-11-15T04:08:32.277Z,30.73
2017-11-15T04:10:59.758Z,26.30
2017-11-15T04:13:27.227Z,25.80
2017-11-15T04:15:54.714Z,28.47
2017-11-15T04:18:22.194Z,29.37
2017-11-15T04:20:49.647Z,27.17
2017-11-15T04:23:17.139Z,22.77
2017-11-15T04:25:44.596Z,22.63
2017-11-15T04:28:12.064Z,24.57
2017-11-15T04:30:39.545Z,25.27
2017-11-15T04:33:07.012Z,29.83
2017-11-15T04:35:34.500Z,31.00
2017-11-15T04:38:01.960Z,29.77
2017-11-15T04:40:29.463Z,30.73
2017-11-15T04:42:56.928Z,31.07
2017-11-15T04:45:24.416Z,29.20
2017-11-15T04:47:51.898Z,28.40
2017-11-15T04:50:19.369Z,28.97
2017-11-15T04:52:46.866Z,27.30
2017-11-15T04:55:14.327Z,28.67
2017-11-15T04:57:41.795Z,27.73
2017-11-15T05:00:09.302Z,31.30
2017-11-15T05:02:36.802Z,25.77
2017-11-15T05:05:04.353Z,27.33
2017-11-15T05:07:31.811Z,26.30
2017-11-15T05:09:59.271Z,28.53
2017-11-15T05:12:26.759Z,29.93
2017-11-15T05:14:54.254Z,27.90
2017-11-15T05:17:21.749Z,29.60
2017-11-15T05:19:49.338Z,26.97
2017-11-15T05:22:16.816Z,29.70
2017-11-15T05:24:44.290Z,27.70
2017-11-15T05:27:11.755Z,25.47
2017-11-15T05:29:39.248Z,31.00
2017-11-15T05:32:06.709Z,28.77
2017-11-15T05:34:34.162Z,29.73
2017-11-15T05:37:01.650Z,29.20
2017-11-15T05:39:29.133Z,32.50
2017-11-15T05:41:56.594Z,29.33
2017-11-15T05:44:24.049Z,31.33
2017-11-15T05:46:51.527Z,29.70
2017-11-15T05:49:18.985Z,33.07
2017-11-15T05:51:46.481Z,30.33
2017-11-15T05:54:13.983Z,31.50
2017-11-15T05:56:41.447Z,31.17
2017-11-15T05:59:08.925Z,29.40
2017-11-15T06:01:36.392Z,30.60
2017-11-15T06:04:03.841Z,31.03
2017-11-15T06:06:31.325Z,24.33
2017-11-15T06:08:58.809Z,26.63
2017-11-15T06:11:26.343Z,28.33
2017-11-15T06:13:53.936Z,26.77
2017-11-15T06:16:21.294Z,26.60
2017-11-15T06:18:48.793Z,30.90
2017-11-15T06:21:16.203Z,27.07
2017-11-15T06:23:43.884Z,26.43
2017-11-15T06:26:11.300Z,30.37
2017-11-15T06:28:38.864Z,31.00
2017-11-15T06:31:06.276Z,30.07
2017-11-15T06:33:33.733Z,27.30
2017-11-15T06:36:01.270Z,28.37
2017-11-15T06:38:28.691Z,24.70
2017-11-15T06:40:56.146Z,30.60
2017-11-15T06:43:23.629Z,31.13
2017-11-15T06:45:51.086Z,29.70
2017-11-15T06:48:18.571Z,28.90
2017-11-15T06:50:46.030Z,56.20
2017-11-15T06:53:13.495Z,29.80
2017-11-15T06:55:40.974Z,33.90
2017-11-15T06:58:08.437Z,31.00
2017-11-15T07:00:36.539Z,29.90
2017-11-15T07:03:04.006Z,27.67
2017-11-15T07:05:31.502Z,27.50
2017-11-15T07:07:58.984Z,25.50
2017-11-15T07:10:26.463Z,26.70
2017-11-15T07:12:53.958Z,24.23
2017-11-15T07:15:21.426Z,25.13
2017-11-15T07:17:48.907Z,26.53
2017-11-15T07:20:16.367Z,26.50
2017-11-15T07:22:43.854Z,26.13
2017-11-15T07:25:11.319Z,26.30
2017-11-15T07:27:38.819Z,26.40
2017-11-15T07:30:06.312Z,26.00
2017-11-15T07:32:33.784Z,28.97
2017-11-15T07:35:01.271Z,29.73
2017-11-15T07:37:28.732Z,28.93
2017-11-15T07:39:56.219Z,27.50
2017-11-15T07:42:23.706Z,28.90
2017-11-15T07:44:51.174Z,29.60
2017-11-15T07:47:18.635Z,29.10
2017-11-15T07:49:46.399Z,28.10
2017-11-15T07:52:13.858Z,26.07
2017-11-15T07:54:41.330Z,28.30
2017-11-15T07:57:08.806Z,28.17
2017-11-15T07:59:36.290Z,29.53
2017-11-15T08:02:03.762Z,26.90
2017-11-15T08:04:31.218Z,29.60
2017-11-15T08:06:58.690Z,31.10
2017-11-15T08:09:26.151Z,29.53
2017-11-15T08:11:53.642Z,29.20
2017-11-15T08:14:21.106Z,28.70
2017-11-15T08:16:48.586Z,31.53
2017-11-15T08:19:16.048Z,29.83
2017-11-15T08:21:43.514Z,30.67
2017-11-15T08:24:11.010Z,29.43
2017-11-15T08:26:38.486Z,28.67
2017-11-15T08:29:05.965Z,27.90
2017-11-15T08:31:33.424Z,28.57
2017-11-15T08:34:00.910Z,32.97
2017-11-15T08:36:28.368Z,34.60
2017-11-15T08:38:55.866Z,30.53
2017-11-15T08:41:23.322Z,31.63
2017-11-15T08:43:50.778Z,35.03
2017-11-15T08:46:18.254Z,35.63
2017-11-15T08:48:45.743Z,38.07
2017-11-15T08:51:13.214Z,34.47
2017-11-15T08:53:40.699Z,33.90
2017-11-15T08:56:08.190Z,36.60
2017-11-15T08:58:35.662Z,37.67
2017-11-15T09:01:03.168Z,35.20
2017-11-15T09:03:30.634Z,33.67
2017-11-15T09:05:58.092Z,31.70
2017-11-15T09:08:25.584Z,33.30
2017-11-15T09:10:53.058Z,29.90
2017-11-15T09:13:20.526Z,31.77
2017-11-15T09:15:48.014Z,32.80
2017-11-15T09:18:15.470Z,32.63
2017-11-15T09:20:42.962Z,33.83
2017-11-15T09:23:10.423Z,34.73
2017-11-15T09:25:37.885Z,33.90
2017-11-15T09:28:05.397Z,34.13
2017-11-15T09:30:32.866Z,33.10
2017-11-15T09:33:00.320Z,33.73
2017-11-15T09:35:27.794Z,32.47
2017-11-15T09:37:55.245Z,34.20
2017-11-15T09:40:23.057Z,33.13
2017-11-15T09:42:50.526Z,32.93
2017-11-15T09:45:17.981Z,34.73
2017-11-15T09:47:45.455Z,29.87
2017-11-15T09:50:12.940Z,30.77
2017-11-15T09:52:40.414Z,34.83
2017-11-15T09:55:07.884Z,37.07
2017-11-15T09:57:35.336Z,35.37
2017-11-15T10:00:02.826Z,34.60
2017-11-15T10:02:30.280Z,33.87
2017-11-15T10:04:57.760Z,35.10
2017-11-15T10:07:25.238Z,35.30
2017-11-15T10:09:52.694Z,36.37
2017-11-15T10:12:20.181Z,37.57
2017-11-15T10:14:47.647Z,38.70
2017-11-15T10:17:15.129Z,36.30
2017-11-15T10:19:43.044Z,34.00
2017-11-15T10:22:10.495Z,35.70
2017-11-15T10:24:37.955Z,33.30
2017-11-15T10:27:05.647Z,34.87
2017-11-15T10:29:33.107Z,35.90
2017-11-15T10:32:00.566Z,39.40
2017-11-15T10:34:28.038Z,33.90
2017-11-15T10:36:55.491Z,37.17
2017-11-15T10:39:22.971Z,42.87
2017-11-15T10:41:50.442Z,40.60
2017-11-15T10:44:17.935Z,40.70
2017-11-15T10:46:45.387Z,38.50
2017-11-15T10:49:12.844Z,40.73
2017-11-15T10:51:40.319Z,42.30
2017-11-15T10:54:07.775Z,42.90
2017-11-15T10:56:35.347Z,39.73
2017-11-15T10:59:02.804Z,41.60
2017-11-15T11:01:30.290Z,38.10
2017-11-15T11:03:57.750Z,42.40
2017-11-15T11:06:25.234Z,39.00
2017-11-15T11:08:52.693Z,36.67
2017-11-15T11:11:20.158Z,37.60
2017-11-15T11:13:47.631Z,40.77
2017-11-15T11:16:15.085Z,37.60
2017-11-15T11:18:42.561Z,35.63
2017-11-15T11:21:10.035Z,37.37
2017-11-15T11:23:37.490Z,39.43
2017-11-15T11:26:04.973Z,36.33
2017-11-15T11:28:32.457Z,33.70
2017-11-15T11:30:59.911Z,34.27
2017-11-15T11:33:27.409Z,54.13
2017-11-15T11:35:54.881Z,55.70
2017-11-15T11:38:23.179Z,55.50
2017-11-15T11:40:50.659Z,59.57
2017-11-15T11:43:18.114Z,62.50
2017-11-15T11:45:45.599Z,61.43
2017-11-15T11:48:13.073Z,56.67
2017-11-15T11:50:40.672Z,67.93
2017-11-15T11:53:08.135Z,86.77
2017-11-15T11:55:35.596Z,82.20
2017-11-15T11:58:03.076Z,84.73
2017-11-15T12:00:30.539Z,86.30
2017-11-15T12:02:58.039Z,67.17
2017-11-15T12:05:25.516Z,74.40
2017-11-15T12:07:52.975Z,78.23
2017-11-15T12:10:20.455Z,80.17
2017-11-15T12:12:47.915Z,79.20
2017-11-15T12:15:15.376Z,77.57
2017-11-15T12:17:42.861Z,75.50
2017-11-15T12:20:10.322Z,78.40
2017-11-15T12:22:38.179Z,80.40
2017-11-15T12:25:05.647Z,75.50
2017-11-15T12:27:33.113Z,81.30
2017-11-15T12:30:00.609Z,77.00
2017-11-15T12:32:28.075Z,79.53
2017-11-15T12:34:55.533Z,67.80
2017-11-15T12:37:23.019Z,48.20
2017-11-15T12:39:50.495Z,52.33
2017-11-15T12:42:17.953Z,48.50
2017-11-15T12:44:45.448Z,53.27
2017-11-15T12:47:12.908Z,54.23
2017-11-15T12:49:40.364Z,61.50
2017-11-15T12:52:07.852Z,58.50
2017-11-15T12:54:35.357Z,59.60
2017-11-15T12:57:02.827Z,61.60
2017-11-15T12:59:30.307Z,60.60
2017-11-15T13:01:57.767Z,66.10
2017-11-15T13:04:25.254Z,67.70
2017-11-15T13:06:52.710Z,65.97
2017-11-15T13:09:20.188Z,71.47
2017-11-15T13:11:47.647Z,70.07
2017-11-15T13:14:15.136Z,71.00
2017-11-15T13:16:42.601Z,75.93
2017-11-15T13:19:10.068Z,71.60
2017-11-15T13:21:37.547Z,60.40
2017-11-15T13:24:05.011Z,55.07
2017-11-15T13:26:32.497Z,59.07
2017-11-15T13:28:59.987Z,57.97
2017-11-15T13:31:27.446Z,63.03
2017-11-15T13:33:54.926Z,57.30
2017-11-15T13:36:22.380Z,52.60
2017-11-15T13:38:49.871Z,56.37
2017-11-15T13:41:17.331Z,54.47
2017-11-15T13:43:44.788Z,54.50
2017-11-15T13:46:12.271Z,53.93
2017-11-15T13:48:39.738Z,51.37
2017-11-15T13:51:07.217Z,55.13
2017-11-15T13:53:34.687Z,54.77
2017-11-15T13:56:02.138Z,53.00
2017-11-15T13:58:29.619Z,52.67
2017-11-15T14:00:57.071Z,47.37
2017-11-15T14:03:24.547Z,50.63
2017-11-15T14:05:52.008Z,51.97
2017-11-15T14:08:19.493Z,49.37
2017-11-15T14:10:46.978Z,52.50
2017-11-15T14:13:14.437Z,53.17
2017-11-15T14:15:41.910Z,50.20
2017-11-15T14:18:09.363Z,51.53
2017-11-15T14:20:36.847Z,47.17
2017-11-15T14:23:04.336Z,45.73
2017-11-15T14:25:31.786Z,48.23
2017-11-15T14:27:59.267Z,46.77
2017-11-15T14:30:26.740Z,48.20
2017-11-15T14:32:54.200Z,47.80
2017-11-15T14:35:21.680Z,46.73
2017-11-15T14:37:49.170Z,50.77
2017-11-15T14:40:16.851Z,51.83
2017-11-15T14:42:44.298Z,50.50
2017-11-15T14:45:11.758Z,49.77
2017-11-15T14:47:39.243Z,52.47
2017-11-15T14:50:06.713Z,50.50
2017-11-15T14:52:34.163Z,49.70
2017-11-15T14:55:01.651Z,49.10
2017-11-15T14:57:29.128Z,49.30
2017-11-15T14:59:56.623Z,53.40
2017-11-15T15:02:24.101Z,49.73
2017-11-15T15:04:51.618Z,48.93
2017-11-15T15:07:19.100Z,62.15
2017-11-15T15:09:46.578Z,66.60
2017-11-15T15:12:14.074Z,68.32
2017-11-15T15:14:41.535Z,59.37
2017-11-15T15:17:09.029Z,53.30
2017-11-15T15:19:36.501Z,55.23
2017-11-15T15:22:03.984Z,55.10
2017-11-15T15:24:31.468Z,50.60
2017-11-15T15:26:58.927Z,52.77
2017-11-15T15:29:26.392Z,53.57
2017-11-15T15:31:53.876Z,51.20
2017-11-15T15:34:21.343Z,52.30
2017-11-15T15:36:48.831Z,51.00
2017-11-15T15:39:16.311Z,50.47
2017-11-15T15:41:43.813Z,54.07
2017-11-15T15:44:11.309Z,54.83
2017-11-15T15:46:38.773Z,49.47
2017-11-15T15:49:06.257Z,54.97
2017-11-15T15:51:33.762Z,54.77
2017-11-15T15:54:01.250Z,53.17
2017-11-15T15:56:28.747Z,79.20
2017-11-15T15:58:56.211Z,59.27
2017-11-15T16:01:23.709Z,56.07
2017-11-15T16:03:51.203Z,60.97
2017-11-15T16:06:18.670Z,55.33
2017-11-15T16:08:46.158Z,59.57
2017-11-15T16:11:13.650Z,53.20
2017-11-15T16:13:41.127Z,52.00
2017-11-15T16:16:08.587Z,53.17
2017-11-15T16:18:36.070Z,53.07
2017-11-15T16:21:03.530Z,52.43
2017-11-15T16:23:31.031Z,56.73
2017-11-15T16:25:58.501Z,54.57
2017-11-15T16:28:25.987Z,55.53
2017-11-15T16:30:53.458Z,55.97
2017-11-15T16:33:20.945Z,56.80
2017-11-15T16:35:48.402Z,50.10
2017-11-15T16:38:15.890Z,56.60
2017-11-15T16:40:43.362Z,68.32
2017-11-15T16:43:10.832Z,66.93
2017-11-15T16:45:38.318Z,64.20
2017-11-15T16:48:05.783Z,63.40
2017-11-15T16:50:33.914Z,89.37
2017-11-15T16:53:01.407Z,65.17
2017-11-15T16:55:28.875Z,83.20
2017-11-15T16:57:56.527Z,60.07
2017-11-15T17:00:25.097Z,59.20
2017-11-15T17:02:52.630Z,55.67
2017-11-15T17:05:20.124Z,58.27
2017-11-15T17:07:47.582Z,54.40
2017-11-15T17:10:15.676Z,60.88
2017-11-15T17:12:43.322Z,88.75
2017-11-15T17:15:10.783Z,79.07
2017-11-15T17:17:38.288Z,66.37
2017-11-15T17:20:05.791Z,60.60
2017-11-15T17:22:33.349Z,54.67
2017-11-15T17:25:00.833Z,62.47
2017-11-15T17:27:29.388Z,53.73
2017-11-15T17:29:56.937Z,96.37
2017-11-15T17:32:24.429Z,68.07
2017-11-15T17:34:51.918Z,68.63
2017-11-15T17:37:19.382Z,61.40
2017-11-15T17:39:46.872Z,63.60
2017-11-15T17:42:14.364Z,65.37
2017-11-15T17:44:41.846Z,61.40
2017-11-15T17:47:09.318Z,85.33
2017-11-15T17:49:36.779Z,66.17
2017-11-15T17:52:04.264Z,67.03
2017-11-15T17:54:31.737Z,61.17
2017-11-15T17:56:59.226Z,56.00
2017-11-15T17:59:26.721Z,55.43
2017-11-15T18:01:54.206Z,56.90
2017-11-15T18:04:21.671Z,51.20
2017-11-15T18:06:49.173Z,55.70
2017-11-15T18:09:16.663Z,53.70
2017-11-15T18:11:44.555Z,49.17
2017-11-15T18:14:12.023Z,51.53
2017-11-15T18:16:40.574Z,64.13
2017-11-15T18:19:08.068Z,56.87
2017-11-15T18:21:35.538Z,55.60
2017-11-15T18:24:03.069Z,50.10
2017-11-15T18:26:30.539Z,48.73
2017-11-15T18:28:58.009Z,52.77
2017-11-15T18:31:25.776Z,51.07
2017-11-15T18:33:53.239Z,53.07
2017-11-15T18:36:20.709Z,52.17
2017-11-15T18:38:48.197Z,51.80
2017-11-15T18:41:15.687Z,50.20
2017-11-15T18:43:43.165Z,51.80
2017-11-15T18:46:10.654Z,51.10
2017-11-15T18:48:38.707Z,51.97
2017-11-15T18:51:06.214Z,49.60
2017-11-15T18:53:33.679Z,49.83
2017-11-15T18:56:01.138Z,54.30
2017-11-15T18:58:28.626Z,52.90
2017-11-15T19:00:56.105Z,52.00
2017-11-15T19:03:23.573Z,50.40
2017-11-15T19:05:51.050Z,55.23
2017-11-15T19:08:18.513Z,54.70
2017-11-15T19:10:45.994Z,55.60
2017-11-15T19:13:13.469Z,57.17
2017-11-15T19:15:40.935Z,57.83
2017-11-15T19:18:08.480Z,53.33
2017-11-15T19:20:35.957Z,55.73
2017-11-15T19:23:03.456Z,64.30
2017-11-15T19:25:30.924Z,70.43
2017-11-15T19:27:58.398Z,68.60
2017-11-15T19:30:25.892Z,60.70
2017-11-15T19:32:53.359Z,68.07
2017-11-15T19:35:20.847Z,68.63
2017-11-15T19:37:48.321Z,67.90
2017-11-15T19:40:15.807Z,61.20
2017-11-15T19:42:43.312Z,67.90
2017-11-15T19:45:10.790Z,68.33
2017-11-15T19:47:38.383Z,64.93
2017-11-15T19:50:05.882Z,66.00
2017-11-15T19:52:33.376Z,68.77
2017-11-15T19:55:00.847Z,73.33
2017-11-15T19:57:28.362Z,70.83
2017-11-15T19:59:55.956Z,67.00
2017-11-15T20:02:23.460Z,75.27
2017-11-15T20:04:50.962Z,70.67
2017-11-15T20:07:18.465Z,92.30
2017-11-15T20:09:45.963Z,71.97
2017-11-15T20:12:13.443Z,69.77
2017-11-15T20:14:41.231Z,68.67
2017-11-15T20:17:08.925Z,91.57
2017-11-15T20:19:36.956Z,64.30
2017-11-15T20:22:04.439Z,69.57
2017-11-15T20:24:31.908Z,66.80
2017-11-15T20:26:59.410Z,75.43
2017-11-15T20:29:26.875Z,77.67
2017-11-15T20:31:54.486Z,89.40
2017-11-15T20:34:22.032Z,111.67
2017-11-15T20:36:49.495Z,110.63
2017-11-15T20:39:16.962Z,124.13
2017-11-15T20:41:44.463Z,333.40
2017-11-15T20:44:11.951Z,74.70
2017-11-15T20:46:39.463Z,59.77
2017-11-15T20:49:06.950Z,59.00
2017-11-15T20:51:34.435Z,67.95
2017-11-15T20:54:01.926Z,60.93
2017-11-15T20:56:29.438Z,60.67
2017-11-15T20:58:56.939Z,61.77
2017-11-15T21:01:24.439Z,57.30
2017-11-15T21:03:51.931Z,58.67
2017-11-15T21:06:19.611Z,63.17
2017-11-15T21:08:47.105Z,61.97
2017-11-15T21:11:14.944Z,62.27
2017-11-15T21:13:42.418Z,64.70
2017-11-15T21:16:09.913Z,63.00
2017-11-15T21:18:37.406Z,66.40
2017-11-15T21:21:04.862Z,66.17
2017-11-15T21:23:32.364Z,68.70
2017-11-15T21:25:59.856Z,125.93
2017-11-15T21:28:27.322Z,154.07
2017-11-15T21:30:55.000Z,74.77
2017-11-15T21:33:22.515Z,69.23
2017-11-15T21:35:49.987Z,75.87
2017-11-15T21:38:17.447Z,67.37
2017-11-15T21:40:44.934Z,67.67
2017-11-15T21:43:12.402Z,70.87
2017-11-15T21:45:39.870Z,73.47
2017-11-15T21:48:07.362Z,67.40
2017-11-15T21:50:34.847Z,71.43
2017-11-15T21:53:02.339Z,72.33
2017-11-15T21:55:29.817Z,76.17
2017-11-15T21:57:57.616Z,77.50
2017-11-15T22:00:25.085Z,82.70
2017-11-15T22:02:52.554Z,79.00
2017-11-15T22:05:20.053Z,78.13
2017-11-15T22:07:47.524Z,82.10
2017-11-15T22:10:15.021Z,78.90
2017-11-15T22:12:42.481Z,73.37
2017-11-15T22:15:09.948Z,80.77
2017-11-15T22:17:37.591Z,79.70
2017-11-15T22:20:05.081Z,80.77
2017-11-15T22:22:32.555Z,77.93
2017-11-15T22:25:00.039Z,80.37
2017-11-15T22:27:27.514Z,72.17
2017-11-15T22:29:55.039Z,69.87
2017-11-15T22:32:22.530Z,72.03
2017-11-15T22:34:50.184Z,71.37
2017-11-15T22:37:17.651Z,71.87
2017-11-15T22:39:45.186Z,74.53
2017-11-15T22:42:12.657Z,73.60
2017-11-15T22:44:40.138Z,70.43
2017-11-15T22:47:07.750Z,74.23
2017-11-15T22:49:35.218Z,72.83
2017-11-15T22:52:02.682Z,81.87
2017-11-15T22:54:30.440Z,77.20
2017-11-15T22:56:57.903Z,78.20
2017-11-15T22:59:25.366Z,74.47
2017-11-15T23:01:52.858Z,69.70
2017-11-15T23:04:20.328Z,71.80
2017-11-15T23:06:47.783Z,70.33
2017-11-15T23:09:15.265Z,70.83
2017-11-15T23:11:42.733Z,67.37
2017-11-15T23:14:10.235Z,66.80
2017-11-15T23:16:37.699Z,67.77
2017-11-15T23:19:05.168Z,65.80
2017-11-15T23:21:32.833Z,66.63
2017-11-15T23:24:00.300Z,70.90
2017-11-15T23:26:27.768Z,74.50
2017-11-15T23:28:55.259Z,66.80
2017-11-15T23:31:22.733Z,73.47
2017-11-15T23:33:50.199Z,71.10
2017-11-15T23:36:17.685Z,69.77
2017-11-15T23:38:45.168Z,70.17
2017-11-15T23:41:12.634Z,68.70
2017-11-15T23:43:40.125Z,72.53
2017-11-15T23:46:07.582Z,77.03
2017-11-15T23:48:35.212Z,78.70
2017-11-15T23:51:02.671Z,81.77
2017-11-15T23:53:30.162Z,75.40
2017-11-15T23:55:57.639Z,74.30
2017-11-15T23:58:25.199Z,73.47
